Time;durP1;ratioP1;P1;durP2;ratioP2;P2;SDS_P1;SDS_P2;PMS_P1;PMS_P2;Temp;Humidity;BMP_temperature;BMP_pressure;BME280_temperature;BME280_humidity;BME280_pressure;Samples;Min_cycle;Max_cycle;Signal;HPM_P1;HPM_P2
2023/03/12 00:00:10;;;;;;;30.85;6.57;;;;;;;15.21;100.00;100128.34;2094904;28;20040;-80
2023/03/12 00:01:33;;;;;;;33.05;6.13;;;;;;;15.20;100.00;100126.59;2095606;28;20523;-80
2023/03/12 00:02:55;;;;;;;27.80;4.53;;;;;;;15.18;100.00;100133.69;2086577;28;20518;-80
2023/03/12 00:04:17;;;;;;;31.17;4.78;;;;;;;15.16;100.00;100128.44;2089133;28;20049;-79
2023/03/12 00:05:39;;;;;;;25.27;4.15;;;;;;;15.16;100.00;100131.09;2086199;28;20044;-79
2023/03/12 00:07:01;;;;;;;;;;;;;;;15.09;100.00;100129.41;2086961;28;20512;-79
2023/03/12 00:08:23;;;;;;;21.48;4.25;;;;;;;15.08;100.00;100133.84;2078255;28;19921;-79
2023/03/12 00:09:45;;;;;;;24.27;4.57;;;;;;;15.11;100.00;100140.88;2092215;28;20440;-79
2023/03/12 00:11:09;;;;;;;20.48;4.03;;;;;;;15.11;100.00;100140.88;2080453;28;20482;-79
2023/03/12 00:12:31;;;;;;;26.30;4.63;;;;;;;15.11;100.00;100146.19;2092518;28;20067;-79
2023/03/12 00:13:55;;;;;;;28.60;4.50;;;;;;;15.11;100.00;100147.06;2093968;28;20488;-79
2023/03/12 00:15:16;;;;;;;26.50;4.85;;;;;;;15.10;100.00;100145.31;2103523;28;20519;-79
2023/03/12 00:16:40;;;;;;;27.73;6.20;;;;;;;15.11;100.00;100140.88;2089387;28;20053;-79
2023/03/12 00:18:03;;;;;;;19.35;3.85;;;;;;;15.11;100.00;100132.91;2092144;28;20046;-79
2023/03/12 00:19:25;;;;;;;27.13;4.22;;;;;;;15.11;100.00;100132.91;2094986;28;20037;-79
2023/03/12 00:20:53;;;;;;;28.00;4.47;;;;;;;15.12;100.00;100132.88;2103069;28;20063;-79
2023/03/12 00:22:15;;;;;;;20.45;4.20;;;;;;;15.12;100.00;100139.97;2088920;28;20045;-79
2023/03/12 00:23:37;;;;;;;29.38;5.65;;;;;;;15.13;100.00;100139.09;2094919;28;20480;-79
2023/03/12 00:24:59;;;;;;;25.25;5.32;;;;;;;15.12;100.00;100140.88;2086169;28;20063;-79
2023/03/12 00:26:22;;;;;;;30.88;5.40;;;;;;;15.13;100.00;100147.06;2100252;28;20048;-79
2023/03/12 00:27:44;;;;;;;23.98;3.90;;;;;;;15.13;100.00;100147.94;2097399;28;20535;-80
2023/03/12 00:29:06;;;;;;;24.48;5.72;;;;;;;15.14;100.00;100155.03;2095078;28;20442;-79
2023/03/12 00:30:28;;;;;;;23.13;4.07;;;;;;;15.17;100.00;100154.09;2086111;28;20075;-80
2023/03/12 00:31:53;;;;;;;22.00;4.55;;;;;;;15.20;100.00;100151.41;2100252;28;20076;-79
2023/03/12 00:33:14;;;;;;;23.75;4.30;;;;;;;15.21;100.00;100137.22;2089350;28;20437;-80
2023/03/12 00:34:36;;;;;;;23.58;4.28;;;;;;;15.23;100.00;100139.84;2091762;28;20054;-80
2023/03/12 00:35:59;;;;;;;31.02;4.90;;;;;;;15.27;100.00;100138.91;2094866;28;20512;-78
2023/03/12 00:37:22;;;;;;;22.77;4.43;;;;;;;15.28;100.00;100136.22;2094785;28;20103;-80
2023/03/12 00:38:45;;;;;;;23.15;4.43;;;;;;;15.31;100.00;100141.50;2086349;28;20056;-79
2023/03/12 00:40:08;;;;;;;28.98;5.68;;;;;;;15.34;100.00;100132.59;2086601;28;20056;-79
2023/03/12 00:41:30;;;;;;;21.42;5.25;;;;;;;15.34;100.00;100144.13;2100832;28;20471;-80
2023/03/12 00:42:53;;;;;;;27.42;5.05;;;;;;;15.36;100.00;100133.47;2088851;28;20091;-79
2023/03/12 00:44:15;;;;;;;28.55;5.63;;;;;;;15.40;100.00;100127.19;2092092;28;20086;-79
2023/03/12 00:45:36;;;;;;;18.95;4.55;;;;;;;15.42;100.00;100136.03;2102625;28;20052;-79
2023/03/12 00:47:00;;;;;;;21.48;4.50;;;;;;;15.45;100.00;100126.22;2097352;28;20040;-79
2023/03/12 00:48:22;;;;;;;18.92;3.90;;;;;;;15.50;100.00;100135.00;2094859;28;20100;-79
2023/03/12 00:49:44;;;;;;;23.83;4.60;;;;;;;15.54;100.00;100133.22;2102837;28;20065;-80
2023/03/12 00:51:06;;;;;;;20.13;4.10;;;;;;;15.58;100.00;100134.06;2097205;28;20098;-79
2023/03/12 00:52:28;;;;;;;22.35;3.67;;;;;;;15.60;100.00;100135.81;2097324;28;20560;-79
2023/03/12 00:53:50;;;;;;;23.20;4.97;;;;;;;15.64;100.00;100131.28;2102677;28;20453;-78
2023/03/12 00:55:13;;;;;;;18.50;3.90;;;;;;;15.67;100.00;100129.50;2089270;28;20041;-79
2023/03/12 00:56:35;;;;;;;23.50;4.97;;;;;;;15.70;100.00;100121.44;2094607;28;20041;-78
2023/03/12 00:57:56;;;;;;;25.08;5.40;;;;;;;15.73;100.00;100117.88;2085856;28;20564;-78
2023/03/12 00:59:19;;;;;;;25.98;4.43;;;;;;;15.73;100.00;100105.44;2083421;28;20136;-78
2023/03/12 01:00:40;;;;;;;29.67;4.97;;;;;;;15.74;100.00;100117.84;2083592;28;20102;-78
2023/03/12 01:02:04;;;;;;;20.15;4.20;;;;;;;15.74;100.00;100120.50;2081331;28;20033;-78
2023/03/12 01:03:26;;;;;;;21.25;3.85;;;;;;;15.74;100.00;100111.66;2084116;28;20574;-77
2023/03/12 01:04:48;;;;;;;19.83;4.15;;;;;;;15.74;100.00;100117.84;2085198;28;20065;-77
2023/03/12 01:06:10;;;;;;;23.88;4.60;;;;;;;15.74;100.00;100115.19;2093216;28;20082;-78
2023/03/12 01:07:31;;;;;;;22.90;4.22;;;;;;;15.76;100.00;100113.34;2095980;28;20041;-77
2023/03/12 01:08:55;;;;;;;20.10;4.57;;;;;;;15.77;100.00;100115.13;2087956;28;20413;-77
2023/03/12 01:10:18;;;;;;;21.20;3.88;;;;;;;15.79;100.00;100113.31;2093492;28;20049;-78
2023/03/12 01:11:41;;;;;;;22.33;4.32;;;;;;;15.81;100.00;100113.31;2087942;28;20528;-78
2023/03/12 01:13:03;;;;;;;17.70;3.67;;;;;;;15.80;100.00;100115.09;2093606;28;20062;-78
2023/03/12 01:14:25;;;;;;;19.17;3.78;;;;;;;15.81;100.00;100118.63;2079168;28;20045;-78
2023/03/12 01:15:47;;;;;;;20.75;4.22;;;;;;;15.81;100.00;100111.53;2093922;28;20059;-78
2023/03/12 01:17:11;;;;;;;20.73;4.47;;;;;;;15.80;100.00;100108.88;2090649;28;20476;-78
2023/03/12 01:18:33;;;;;;;26.35;4.85;;;;;;;15.78;100.00;100106.25;2086953;28;20056;-78
2023/03/12 01:19:54;;;;;;;19.67;3.55;;;;;;;15.76;100.00;100097.38;2087845;28;20065;-79
2023/03/12 01:21:17;;;;;;;21.05;4.00;;;;;;;15.76;100.00;100105.38;2087781;28;20123;-79
2023/03/12 01:22:38;;;;;;;19.77;4.20;;;;;;;15.75;100.00;100113.41;2087774;28;20508;-78
2023/03/12 01:24:00;;;;;;;18.58;3.72;;;;;;;15.75;100.00;100108.09;2079745;28;20053;-79
2023/03/12 01:25:23;;;;;;;20.27;3.63;;;;;;;15.76;100.00;100101.81;2079530;28;20049;-79
2023/03/12 01:26:44;;;;;;;19.92;4.18;;;;;;;15.76;100.00;100108.03;2079541;28;20053;-78
2023/03/12 01:28:07;;;;;;;23.85;4.50;;;;;;;15.75;100.00;100111.59;2093008;28;20492;-79
2023/03/12 01:29:29;;;;;;;25.35;4.90;;;;;;;15.77;100.00;100103.59;2090297;28;20148;-78
2023/03/12 01:30:51;;;;;;;24.23;4.10;;;;;;;15.79;100.00;100108.00;2079375;28;20068;-79
2023/03/12 01:32:15;;;;;;;25.20;4.43;;;;;;;15.82;100.00;100109.72;2093429;28;20041;-79
2023/03/12 01:33:38;;;;;;;19.58;4.28;;;;;;;15.81;100.00;100106.19;2090393;28;20119;-79
2023/03/12 01:35:00;;;;;;;23.33;4.25;;;;;;;15.82;100.00;100102.59;2081639;28;20041;-78
2023/03/12 01:36:24;;;;;;;23.80;3.95;;;;;;;15.83;100.00;100120.34;2096126;28;20067;-79
2023/03/12 01:37:46;;;;;;;13.85;3.75;;;;;;;15.84;100.00;100113.25;2081892;28;20049;-79
2023/03/12 01:39:08;;;;;;;19.90;3.42;;;;;;;15.84;100.00;100108.78;2093072;28;20163;-78
2023/03/12 01:40:34;;;;;;;16.73;4.07;;;;;;;15.87;100.00;100110.53;2090457;28;20056;-78
2023/03/12 01:41:56;;;;;;;18.77;4.13;;;;;;;15.86;100.00;100117.66;2087478;28;20039;-78
2023/03/12 01:43:29;;;;;;;20.23;3.58;;;;;;;15.89;100.00;100114.03;2089813;28;20076;-78
2023/03/12 01:44:55;;;;;;;21.15;4.82;;;;;;;15.88;100.00;100112.31;2090373;28;20033;-78
2023/03/12 01:46:26;;;;;;;20.92;4.05;;;;;;;15.89;100.00;100112.25;2090037;28;20067;-79
2023/03/12 01:47:51;;;;;;;17.05;3.72;;;;;;;15.89;100.00;100109.59;2080460;28;20084;-78
2023/03/12 01:49:16;;;;;;;25.50;3.85;;;;;;;15.91;100.00;100118.44;2076607;28;20049;-78
2023/03/12 01:50:38;;;;;;;19.00;3.60;;;;;;;15.92;100.00;100109.56;2079864;28;20080;-79
2023/03/12 01:52:03;;;;;;;18.83;4.28;;;;;;;15.94;100.00;100110.41;2076358;28;20092;-78
2023/03/12 01:53:32;;;;;;;17.13;3.50;;;;;;;15.95;100.00;100108.59;2087595;28;20079;-78
2023/03/12 01:54:58;;;;;;;19.50;3.70;;;;;;;15.97;100.00;100105.94;2079652;28;20053;-78
2023/03/12 01:56:21;;;;;;;25.30;4.63;;;;;;;15.96;100.00;100107.72;2077550;28;20441;-78
2023/03/12 01:57:51;;;;;;;19.67;3.58;;;;;;;15.99;100.00;100104.13;2077012;28;20084;-79
2023/03/12 01:59:17;;;;;;;15.95;3.50;;;;;;;15.99;100.00;100109.44;2080265;28;20060;-80
2023/03/12 02:00:40;;;;;;;19.33;4.18;;;;;;;16.00;100.00;100111.22;2085897;28;20056;-79
2023/03/12 02:02:02;;;;;;;20.95;4.15;;;;;;;16.01;100.00;100112.97;2097200;28;20085;-79
2023/03/12 02:03:26;;;;;;;17.60;3.90;;;;;;;16.01;100.00;100110.31;2081766;28;20048;-79
2023/03/12 02:04:50;;;;;;;16.88;3.47;;;;;;;16.02;100.00;100110.25;2076976;28;20922;-79
2023/03/12 02:06:13;;;;;;;17.90;3.35;;;;;;;16.03;100.00;100119.13;2085238;28;20041;-79
2023/03/12 02:07:37;;;;;;;22.33;4.25;;;;;;;16.02;100.00;100110.25;2087768;28;20477;-79
2023/03/12 02:09:01;;;;;;;15.80;3.08;;;;;;;16.05;100.00;100104.91;2079338;28;20064;-79
2023/03/12 02:10:26;;;;;;;15.23;3.63;;;;;;;16.03;100.00;100103.16;2069092;28;20053;-79
2023/03/12 02:11:47;;;;;;;14.40;3.15;;;;;;;16.03;100.00;100101.38;2082944;28;20485;-79
2023/03/12 02:13:12;;;;;;;18.00;4.45;;;;;;;16.03;100.00;100113.81;2079053;28;20536;-78
2023/03/12 02:14:40;;;;;;;16.27;3.40;;;;;;;16.03;100.00;100104.03;2078515;28;20053;-78
2023/03/12 02:16:02;;;;;;;17.63;3.42;;;;;;;16.04;100.00;100108.47;2075807;28;20096;-79
2023/03/12 02:17:25;;;;;;;17.33;3.90;;;;;;;16.06;100.00;100106.66;2084554;28;20135;-79
2023/03/12 02:18:50;;;;;;;20.92;4.72;;;;;;;16.06;100.00;100109.31;2087205;28;20037;-80
2023/03/12 02:20:18;;;;;;;21.60;4.10;;;;;;;16.07;100.00;100104.88;2079679;28;20045;-79
2023/03/12 02:21:42;;;;;;;21.65;4.03;;;;;;;16.07;100.00;100107.53;2086367;28;20049;-80
2023/03/12 02:23:08;;;;;;;18.33;3.55;;;;;;;16.06;100.00;100108.44;2078886;28;20051;-79
2023/03/12 02:24:37;;;;;;;14.32;2.72;;;;;;;16.06;100.00;100113.78;2094085;28;20608;-80
2023/03/12 02:26:02;;;;;;;24.33;3.78;;;;;;;16.05;100.00;100109.34;2089953;28;20148;-79
2023/03/12 02:27:24;;;;;;;16.65;3.50;;;;;;;16.05;100.00;100106.69;2079366;28;20049;-80
2023/03/12 02:28:47;;;;;;;13.52;3.47;;;;;;;16.06;100.00;100111.09;2084772;28;20048;-80
2023/03/12 02:30:14;;;;;;;17.80;3.70;;;;;;;16.07;100.00;100110.22;2087375;28;20041;-80
2023/03/12 02:31:42;;;;;;;18.92;4.00;;;;;;;16.06;100.00;100109.31;2079445;28;20529;-80
2023/03/12 02:33:07;;;;;;;17.30;3.85;;;;;;;16.06;100.00;100106.66;2094474;28;20041;-79
2023/03/12 02:34:29;;;;;;;15.88;3.50;;;;;;;16.07;100.00;100107.53;2090030;28;20164;-80
2023/03/12 02:35:52;;;;;;;18.73;3.47;;;;;;;16.09;100.00;100119.91;2078811;28;20564;-79
2023/03/12 02:37:14;;;;;;;18.40;3.20;;;;;;;16.08;100.00;100114.63;2085214;28;20040;-80
2023/03/12 02:38:45;;;;;;;22.40;3.60;;;;;;;16.09;100.00;100111.91;2087198;28;20501;-80
2023/03/12 02:40:15;;;;;;;21.75;3.90;;;;;;;16.09;100.00;100117.25;2080250;28;20107;-80
2023/03/12 02:41:41;;;;;;;21.80;3.78;;;;;;;16.10;100.00;100111.00;2078409;28;20117;-80
2023/03/12 02:43:07;;;;;;;14.70;3.08;;;;;;;16.09;100.00;100117.25;2077650;28;20052;-80
2023/03/12 02:44:30;;;;;;;16.00;2.92;;;;;;;16.10;100.00;100112.78;2077383;28;20445;-79
2023/03/12 02:45:54;;;;;;;21.98;3.67;;;;;;;16.11;100.00;100114.56;2076741;28;20103;-80
2023/03/12 02:47:18;;;;;;;19.75;4.18;;;;;;;16.11;100.00;100109.22;2077205;28;20036;-79
2023/03/12 02:48:39;;;;;;;16.05;3.03;;;;;;;16.10;100.00;100115.47;2084475;28;20057;-80
2023/03/12 02:50:02;;;;;;;22.25;3.53;;;;;;;16.10;100.00;100116.34;2079056;28;20075;-80
2023/03/12 02:51:24;;;;;;;23.38;3.75;;;;;;;16.10;100.00;100113.69;2084677;28;20063;-80
2023/03/12 02:52:45;;;;;;;18.67;3.80;;;;;;;16.12;100.00;100113.66;2078452;28;20045;-79
2023/03/12 02:54:08;;;;;;;17.15;3.63;;;;;;;16.12;100.00;100108.34;2078960;28;20042;-79
2023/03/12 02:55:30;;;;;;;16.65;3.50;;;;;;;16.11;100.00;100103.91;2076816;28;20151;-79
2023/03/12 02:56:54;;;;;;;17.08;3.83;;;;;;;16.11;100.00;100110.13;2084399;28;20166;-78
2023/03/12 02:58:15;;;;;;;16.25;2.97;;;;;;;16.09;100.00;100109.25;2079133;28;20148;-78
2023/03/12 02:59:38;;;;;;;16.77;3.53;;;;;;;16.11;100.00;100109.22;2075997;28;20652;-79
2023/03/12 03:01:01;;;;;;;16.77;4.25;;;;;;;16.10;100.00;100111.00;2076728;28;20144;-79
2023/03/12 03:02:24;;;;;;;18.40;4.07;;;;;;;16.10;100.00;100112.78;2080453;28;20049;-79
2023/03/12 03:03:46;;;;;;;14.98;3.63;;;;;;;16.12;100.00;100111.00;2095382;28;20049;-79
2023/03/12 03:05:10;;;;;;;18.77;3.38;;;;;;;16.13;100.00;100112.75;2095388;28;20075;-79
2023/03/12 03:06:31;;;;;;;18.10;3.25;;;;;;;16.12;100.00;100111.00;2089510;28;20068;-79
2023/03/12 03:07:53;;;;;;;21.52;3.55;;;;;;;16.10;100.00;100111.00;2092359;28;20049;-79
2023/03/12 03:09:16;;;;;;;17.42;3.05;;;;;;;16.12;100.00;100111.00;2087009;28;20077;-79
2023/03/12 03:10:38;;;;;;;19.13;3.03;;;;;;;16.11;100.00;100110.13;2084686;28;20052;-79
2023/03/12 03:12:02;;;;;;;16.23;3.40;;;;;;;16.13;100.00;100110.09;2084023;28;20061;-79
2023/03/12 03:13:26;;;;;;;20.92;3.53;;;;;;;16.12;100.00;100122.53;2087159;28;20063;-78
2023/03/12 03:14:48;;;;;;;17.95;3.85;;;;;;;16.11;100.00;100115.44;2087132;28;20049;-78
2023/03/12 03:16:12;;;;;;;16.70;3.88;;;;;;;16.12;100.00;100125.19;2086920;28;20083;-78
2023/03/12 03:17:34;;;;;;;20.17;3.28;;;;;;;16.11;100.00;100120.75;2078565;28;20076;-78
2023/03/12 03:18:55;;;;;;;23.15;4.68;;;;;;;16.11;100.00;100122.53;2084571;28;20507;-78
2023/03/12 03:20:18;;;;;;;17.83;3.45;;;;;;;16.11;100.00;100127.88;2086345;28;20091;-79
2023/03/12 03:21:42;;;;;;;14.55;3.00;;;;;;;16.10;100.00;100132.31;2086773;28;20144;-79
2023/03/12 03:23:04;;;;;;;20.92;4.35;;;;;;;16.10;100.00;100129.66;2087266;28;20094;-78
2023/03/12 03:24:26;;;;;;;23.73;3.92;;;;;;;16.11;100.00;100130.53;2078293;28;20049;-78
2023/03/12 03:25:51;;;;;;;17.75;3.20;;;;;;;16.11;100.00;100136.75;2087326;28;20398;-79
2023/03/12 03:27:15;;;;;;;;;;;;;;;16.07;100.00;100126.19;2087563;28;20524;-80
2023/03/12 03:28:37;;;;;;;16.05;2.65;;;;;;;16.06;100.00;100127.09;2095070;28;19920;-80
2023/03/12 03:30:00;;;;;;;17.52;3.45;;;;;;;16.07;100.00;100126.19;2089415;28;20068;-79
2023/03/12 03:31:22;;;;;;;17.65;4.00;;;;;;;16.07;100.00;100124.41;2078870;28;20037;-79
2023/03/12 03:32:45;;;;;;;17.73;2.97;;;;;;;16.07;100.00;100127.06;2083908;28;20053;-80
2023/03/12 03:34:08;;;;;;;17.75;3.25;;;;;;;16.08;100.00;100134.13;2083455;28;20087;-79
2023/03/12 03:35:29;;;;;;;19.33;3.50;;;;;;;16.09;100.00;100127.00;2084646;28;20099;-79
2023/03/12 03:36:52;;;;;;;17.58;3.28;;;;;;;16.08;100.00;100122.63;2078476;28;20144;-79
2023/03/12 03:38:13;;;;;;;18.60;3.28;;;;;;;16.08;100.00;100120.81;2084168;28;20068;-79
2023/03/12 03:39:35;;;;;;;21.63;3.58;;;;;;;16.08;100.00;100119.97;2078898;28;20488;-79
2023/03/12 03:40:57;;;;;;;16.98;3.20;;;;;;;16.09;100.00;100116.34;2083893;28;20068;-79
2023/03/12 03:42:21;;;;;;;21.75;3.65;;;;;;;16.09;100.00;100111.03;2086661;28;20053;-79
2023/03/12 03:43:43;;;;;;;20.52;3.00;;;;;;;16.10;100.00;100123.44;2080790;28;20386;-79
2023/03/12 03:45:07;;;;;;;16.27;3.90;;;;;;;16.08;100.00;100119.97;2083795;28;20090;-79
2023/03/12 03:46:30;;;;;;;16.95;4.05;;;;;;;16.08;100.00;100126.13;2084575;28;20052;-80
2023/03/12 03:47:59;;;;;;;15.57;2.97;;;;;;;16.07;100.00;100127.06;2087787;28;20079;-80
2023/03/12 03:49:21;;;;;;;25.55;3.88;;;;;;;16.07;100.00;100127.06;2086496;28;20057;-78
2023/03/12 03:50:43;;;;;;;16.67;3.28;;;;;;;16.07;100.00;100131.50;2086805;28;20105;-80
2023/03/12 03:52:06;;;;;;;22.40;3.85;;;;;;;16.06;100.00;100119.09;2086826;28;20099;-79
2023/03/12 03:53:31;;;;;;;16.63;2.95;;;;;;;16.06;100.00;100121.75;2087024;28;20045;-80
2023/03/12 03:54:55;;;;;;;20.05;3.67;;;;;;;16.06;100.00;100124.41;2084471;28;20505;-79
2023/03/12 03:56:17;;;;;;;16.92;3.97;;;;;;;16.06;100.00;100119.09;2084468;28;20160;-79
2023/03/12 03:57:44;;;;;;;20.25;3.53;;;;;;;16.06;100.00;100121.75;2086936;28;20072;-79
2023/03/12 03:59:05;;;;;;;22.70;3.70;;;;;;;16.05;100.00;100122.66;2092303;28;20098;-79
2023/03/12 04:00:30;;;;;;;20.45;3.45;;;;;;;16.06;100.00;100124.41;2089284;28;20036;-79
2023/03/12 04:01:52;;;;;;;17.70;3.65;;;;;;;16.05;100.00;100120.88;2092269;28;20041;-80
2023/03/12 04:03:15;;;;;;;17.80;3.85;;;;;;;16.05;100.00;100120.88;2086519;28;20060;-80
2023/03/12 04:04:37;;;;;;;17.83;3.35;;;;;;;16.06;100.00;100121.75;2086889;28;20172;-80
2023/03/12 04:06:01;;;;;;;22.05;3.63;;;;;;;16.05;100.00;100126.19;2086745;28;20048;-80
2023/03/12 04:07:24;;;;;;;24.38;4.25;;;;;;;16.05;100.00;100120.00;2086985;28;20053;-80
2023/03/12 04:08:46;;;;;;;18.27;3.60;;;;;;;16.05;100.00;100125.31;2084283;28;20375;-80
2023/03/12 04:10:12;;;;;;;15.60;2.53;;;;;;;16.05;100.00;100127.97;2092641;28;20055;-79
2023/03/12 04:11:34;;;;;;;19.30;3.33;;;;;;;16.03;100.00;100125.34;2086632;28;20081;-79
2023/03/12 04:12:58;;;;;;;18.40;3.33;;;;;;;16.05;100.00;100127.97;2084160;28;20091;-79
2023/03/12 04:14:21;;;;;;;19.15;3.20;;;;;;;16.05;100.00;100125.31;2086486;28;20049;-78
2023/03/12 04:15:46;;;;;;;23.02;4.35;;;;;;;16.05;100.00;100123.53;2086619;28;20033;-79
2023/03/12 04:17:09;;;;;;;20.98;4.13;;;;;;;16.05;100.00;100125.31;2080795;28;20485;-79
2023/03/12 04:18:31;;;;;;;18.40;3.13;;;;;;;16.06;100.00;100127.09;2075880;28;20505;-79
2023/03/12 04:19:55;;;;;;;20.45;3.50;;;;;;;16.05;100.00;100118.22;2076572;28;20046;-79
2023/03/12 04:21:16;;;;;;;17.15;3.15;;;;;;;16.05;100.00;100123.53;2075609;28;20073;-80
2023/03/12 04:22:39;;;;;;;;;;;;;;;16.00;100.00;100119.19;2075898;28;20054;-80
2023/03/12 04:24:01;;;;;;;15.88;3.22;;;;;;;16.00;100.00;100120.09;2075605;28;19925;-79
2023/03/12 04:25:27;;;;;;;20.42;4.13;;;;;;;16.02;100.00;100125.34;2085220;28;20036;-79
2023/03/12 04:26:50;;;;;;;19.92;3.45;;;;;;;16.03;100.00;100122.69;2078245;28;20045;-78
2023/03/12 04:28:13;;;;;;;15.00;3.20;;;;;;;16.04;100.00;100124.44;2084312;28;20053;-79
2023/03/12 04:29:37;;;;;;;21.33;3.80;;;;;;;16.04;100.00;100124.44;2078217;28;20095;-79
2023/03/12 04:31:01;;;;;;;22.75;3.38;;;;;;;16.05;100.00;100128.88;2075776;28;20053;-79
2023/03/12 04:32:27;;;;;;;24.77;4.32;;;;;;;16.05;100.00;100120.88;2077082;28;20041;-79
2023/03/12 04:33:49;;;;;;;18.73;3.88;;;;;;;16.05;100.00;100122.66;2084122;28;20060;-79
2023/03/12 04:35:12;;;;;;;26.73;4.82;;;;;;;16.06;100.00;100127.09;2086313;28;20803;-79
2023/03/12 04:36:33;;;;;;;23.13;3.97;;;;;;;16.06;100.00;100133.28;2078122;28;20050;-78
2023/03/12 04:37:56;;;;;;;18.17;3.10;;;;;;;16.07;100.00;100128.84;2091785;28;20048;-79
2023/03/12 04:39:20;;;;;;;14.50;3.58;;;;;;;16.07;100.00;100129.72;2080102;28;20046;-79
2023/03/12 04:40:45;;;;;;;17.88;3.80;;;;;;;16.06;100.00;100122.63;2076648;28;20521;-79
2023/03/12 04:42:08;;;;;;;20.67;3.08;;;;;;;16.07;100.00;100128.84;2083908;28;20080;-79
2023/03/12 04:43:32;;;;;;;11.80;2.75;;;;;;;16.06;100.00;100132.41;2086625;28;20041;-79
2023/03/12 04:44:55;;;;;;;18.70;3.78;;;;;;;16.05;100.00;100126.19;2080632;28;20107;-79
2023/03/12 04:46:17;;;;;;;23.75;4.13;;;;;;;16.06;100.00;100138.59;2086748;28;20056;-79
2023/03/12 04:47:40;;;;;;;22.55;4.00;;;;;;;16.06;100.00;100135.06;2088586;28;20143;-79
2023/03/12 04:49:02;;;;;;;18.17;3.38;;;;;;;16.06;100.00;100130.63;2086818;28;20041;-78
2023/03/12 04:50:26;;;;;;;20.23;3.15;;;;;;;16.06;100.00;100129.75;2078421;28;20045;-79
2023/03/12 04:51:48;;;;;;;18.73;3.58;;;;;;;16.06;100.00;100132.41;2075119;28;20108;-79
2023/03/12 04:53:09;;;;;;;19.55;5.20;;;;;;;16.07;100.00;100132.38;2083750;28;20098;-79
2023/03/12 04:54:32;;;;;;;26.33;5.05;;;;;;;16.08;100.00;100125.28;2086480;28;20037;-79
2023/03/12 04:55:54;;;;;;;20.00;3.35;;;;;;;16.09;100.00;100127.00;2078115;28;20049;-79
2023/03/12 04:57:17;;;;;;;14.63;3.00;;;;;;;16.10;100.00;100128.78;2077932;28;20049;-79
2023/03/12 04:58:40;;;;;;;15.77;3.08;;;;;;;16.13;100.00;100124.28;2075535;28;20041;-80
2023/03/12 05:00:08;;;;;;;15.82;3.30;;;;;;;16.14;100.00;100130.50;2078071;28;20041;-79
2023/03/12 05:01:33;;;;;;;23.38;4.13;;;;;;;16.15;100.00;100132.22;2085135;28;20053;-79
2023/03/12 05:02:59;;;;;;;19.63;4.80;;;;;;;16.16;100.00;100126.88;2089082;28;20044;-79
2023/03/12 05:04:21;;;;;;;20.23;3.33;;;;;;;16.17;100.00;100128.66;2080890;28;20053;-79
2023/03/12 05:05:44;;;;;;;19.02;3.38;;;;;;;16.20;100.00;100130.38;2075603;28;20099;-79
2023/03/12 05:07:06;;;;;;;20.77;4.15;;;;;;;16.21;100.00;100133.00;2083696;28;20041;-79
2023/03/12 05:08:28;;;;;;;21.60;4.35;;;;;;;16.21;100.00;100130.34;2086250;28;20366;-80
2023/03/12 05:09:50;;;;;;;22.85;4.57;;;;;;;16.23;100.00;100130.31;2094794;28;20152;-79
2023/03/12 05:11:13;;;;;;;13.65;3.17;;;;;;;16.25;100.00;100131.19;2088826;28;20048;-79
2023/03/12 05:12:36;;;;;;;11.88;3.08;;;;;;;16.26;100.00;100135.59;2088239;28;20053;-80
2023/03/12 05:14:00;;;;;;;23.00;4.20;;;;;;;16.27;100.00;100129.38;2086337;28;20037;-80
2023/03/12 05:15:23;;;;;;;17.95;4.32;;;;;;;16.28;100.00;100144.44;2092248;28;20048;-78
2023/03/12 05:16:44;;;;;;;21.77;3.97;;;;;;;16.29;100.00;100146.19;2086301;28;20155;-79
2023/03/12 05:18:06;;;;;;;18.25;4.00;;;;;;;16.29;100.00;100140.84;2088978;28;20080;-79
2023/03/12 05:19:29;;;;;;;22.02;3.95;;;;;;;16.33;100.00;100139.91;2091779;28;20048;-79
2023/03/12 05:20:58;;;;;;;21.85;4.30;;;;;;;16.36;100.00;100153.16;2102875;28;20079;-79
2023/03/12 05:22:20;;;;;;;13.23;3.92;;;;;;;16.35;100.00;100143.41;2089193;28;20043;-80
2023/03/12 05:23:42;;;;;;;18.55;4.05;;;;;;;16.37;100.00;100143.38;2094448;28;20056;-80
2023/03/12 05:25:07;;;;;;;18.60;3.53;;;;;;;16.38;100.00;100143.38;2086440;28;20041;-80
2023/03/12 05:26:33;;;;;;;18.83;3.63;;;;;;;16.39;100.00;100145.13;2084257;28;20102;-79
2023/03/12 05:28:04;;;;;;;14.18;2.67;;;;;;;16.42;100.00;100138.84;2086967;28;20044;-79
2023/03/12 05:29:28;;;;;;;19.98;3.83;;;;;;;16.44;100.00;100145.94;2083608;28;20045;-80
2023/03/12 05:30:50;;;;;;;14.35;3.47;;;;;;;16.46;100.00;100146.78;2084069;28;20037;-79
2023/03/12 05:32:13;;;;;;;21.55;3.97;;;;;;;16.46;100.00;100141.47;2100144;28;20056;-80
2023/03/12 05:33:34;;;;;;;20.38;4.15;;;;;;;16.49;100.00;100143.16;2088395;28;20049;-79
2023/03/12 05:34:57;;;;;;;22.38;4.25;;;;;;;16.53;100.00;100143.09;2094396;28;20098;-79
2023/03/12 05:36:20;;;;;;;23.00;4.53;;;;;;;16.57;100.00;100143.91;2086307;28;20045;-79
2023/03/12 05:37:42;;;;;;;15.80;3.22;;;;;;;16.60;100.00;100150.09;2083718;28;20049;-79
2023/03/12 05:39:06;;;;;;;18.55;3.55;;;;;;;16.64;100.00;100143.81;2092199;28;20051;-79
2023/03/12 05:40:29;;;;;;;17.98;3.13;;;;;;;16.69;100.00;100146.38;2086310;28;20049;-78
2023/03/12 05:41:52;;;;;;;19.42;3.40;;;;;;;16.74;100.00;100142.69;2083228;28;20642;-79
2023/03/12 05:43:14;;;;;;;19.65;3.80;;;;;;;16.79;100.00;100141.75;2083936;28;20148;-79
2023/03/12 05:44:38;;;;;;;13.93;3.10;;;;;;;16.84;100.00;100146.06;2083592;28;20045;-79
2023/03/12 05:46:00;;;;;;;24.30;5.20;;;;;;;16.89;100.00;100140.66;2091906;28;20041;-79
2023/03/12 05:47:23;;;;;;;17.63;3.72;;;;;;;16.94;100.00;100142.31;2094366;28;20515;-78
2023/03/12 05:48:46;;;;;;;20.08;3.22;;;;;;;17.00;100.00;100142.19;2086067;28;20143;-79
2023/03/12 05:50:10;;;;;;;15.70;3.42;;;;;;;17.08;100.00;100142.91;2086071;28;20440;-79
2023/03/12 05:51:33;;;;;;;17.30;2.85;;;;;;;17.16;100.00;100137.41;2076820;28;20529;-79
2023/03/12 05:52:55;;;;;;;15.55;3.35;;;;;;;17.24;100.00;100130.13;2084769;28;20045;-79
2023/03/12 05:54:18;;;;;;;15.10;3.17;;;;;;;17.34;100.00;100134.34;2093127;28;20393;-79
2023/03/12 05:55:41;;;;;;;24.13;4.80;;;;;;;17.50;100.00;100137.56;2088086;28;20060;-79
2023/03/12 05:57:04;;;;;;;18.88;2.95;;;;;;;17.62;100.00;100152.44;2084869;28;20497;-80
2023/03/12 05:58:25;;;;;;;17.42;3.58;;;;;;;17.75;100.00;100148.56;2085117;28;20049;-80
2023/03/12 05:59:49;;;;;;;15.43;3.60;;;;;;;17.93;100.00;100138.31;2084877;28;20533;-80
2023/03/12 06:01:12;;;;;;;15.85;3.67;;;;;;;18.09;100.00;100148.63;2084710;28;20036;-79
2023/03/12 06:02:35;;;;;;;21.73;2.90;;;;;;;18.18;100.00;100148.41;2084331;28;20590;-78
2023/03/12 06:03:57;;;;;;;20.83;4.28;;;;;;;18.27;100.00;100146.38;2084655;28;20048;-79
2023/03/12 06:05:20;;;;;;;14.48;3.15;;;;;;;18.36;100.00;100145.25;2084805;28;20479;-78
2023/03/12 06:06:43;;;;;;;14.55;2.92;;;;;;;18.45;100.00;100141.44;2085132;28;20143;-79
2023/03/12 06:08:06;;;;;;;19.50;3.90;;;;;;;18.56;100.00;100160.81;2089326;28;20048;-79
2023/03/12 06:09:28;;;;;;;11.48;2.60;;;;;;;18.73;100.00;100150.53;2092773;28;20397;-79
2023/03/12 06:10:50;;;;;;;16.05;3.25;;;;;;;18.90;100.00;100144.72;2093247;28;20049;-78
2023/03/12 06:12:13;;;;;;;;;;;;;;;19.00;100.00;100151.53;2090261;28;20053;-79
2023/03/12 06:13:35;;;;;;;14.15;3.17;;;;;;;19.22;100.00;100149.13;2084039;28;19921;-79
2023/03/12 06:14:59;;;;;;;12.60;2.65;;;;;;;19.42;100.00;100152.97;2090140;28;20105;-79
2023/03/12 06:16:25;;;;;;;15.52;3.95;;;;;;;19.47;100.00;100150.19;2085232;28;20064;-79
2023/03/12 06:17:47;;;;;;;11.50;2.78;;;;;;;19.41;100.00;100143.19;2085793;28;20102;-80